sensor_id;sensor_type;location;lat;lon;timestamp;temperature;humidity
55026;DHT22;40925;45.666;18.994;2023-05-20T00:38:13;384.80;2329.60
55026;DHT22;40925;45.666;18.994;2023-05-20T00:40:38;384.70;2329.60
55026;DHT22;40925;45.666;18.994;2023-05-20T00:43:04;384.80;2329.60
55026;DHT22;40925;45.666;18.994;2023-05-20T00:45:30;384.50;2329.60
55026;DHT22;40925;45.666;18.994;2023-05-20T00:47:56;384.40;2329.60
55026;DHT22;40925;45.666;18.994;2023-05-20T00:50:24;384.40;2329.60
55026;DHT22;40925;45.666;18.994;2023-05-20T01:19:45;384.40;2329.60
55026;DHT22;40925;45.666;18.994;2023-05-20T01:22:13;384.00;2329.60
55026;DHT22;40925;45.666;18.994;2023-05-20T01:24:44;359.30;2329.60
55026;DHT22;40925;45.666;18.994;2023-05-20T01:27:11;359.20;2329.60
55026;DHT22;40925;45.666;18.994;2023-05-20T01:46:48;359.30;2329.60
55026;DHT22;40925;45.666;18.994;2023-05-20T01:49:14;359.10;2329.60
55026;DHT22;40925;45.666;18.994;2023-05-20T02:50:10;358.50;2329.60
55026;DHT22;40925;45.666;18.994;2023-05-20T03:53:36;358.60;2329.60
55026;DHT22;40925;45.666;18.994;2023-05-20T03:56:02;358.40;2329.60
55026;DHT22;40925;45.666;18.994;2023-05-20T03:58:28;358.40;2329.60
55026;DHT22;40925;45.666;18.994;2023-05-20T04:00:54;358.40;2329.60
55026;DHT22;40925;45.666;18.994;2023-05-20T04:03:20;358.50;2329.60
55026;DHT22;40925;45.666;18.994;2023-05-20T04:05:47;358.50;2329.60
55026;DHT22;40925;45.666;18.994;2023-05-20T04:08:13;358.60;2329.60
55026;DHT22;40925;45.666;18.994;2023-05-20T04:10:42;358.60;2329.60
55026;DHT22;40925;45.666;18.994;2023-05-20T04:15:37;359.00;2329.60
55026;DHT22;40925;45.666;18.994;2023-05-20T04:18:04;358.80;2329.60
55026;DHT22;40925;45.666;18.994;2023-05-20T04:20:32;358.60;2329.60
55026;DHT22;40925;45.666;18.994;2023-05-20T04:22:58;358.90;2329.60
55026;DHT22;40925;45.666;18.994;2023-05-20T04:25:24;358.90;2329.60
55026;DHT22;40925;45.666;18.994;2023-05-20T04:27:50;358.90;2329.60
55026;DHT22;40925;45.666;18.994;2023-05-20T04:30:18;359.00;2329.60
55026;DHT22;40925;45.666;18.994;2023-05-20T04:32:47;359.00;2329.60
55026;DHT22;40925;45.666;18.994;2023-05-20T04:35:13;358.90;2329.60
55026;DHT22;40925;45.666;18.994;2023-05-20T04:37:39;358.90;2329.60
55026;DHT22;40925;45.666;18.994;2023-05-20T04:40:07;358.90;2329.60
55026;DHT22;40925;45.666;18.994;2023-05-20T04:42:33;358.90;2329.60
55026;DHT22;40925;45.666;18.994;2023-05-20T04:44:59;358.90;2329.60
55026;DHT22;40925;45.666;18.994;2023-05-20T04:47:27;359.00;2329.60
55026;DHT22;40925;45.666;18.994;2023-05-20T04:49:54;359.00;2329.60
55026;DHT22;40925;45.666;18.994;2023-05-20T04:52:25;359.20;2329.60
55026;DHT22;40925;45.666;18.994;2023-05-20T04:54:54;359.10;2329.60
55026;DHT22;40925;45.666;18.994;2023-05-20T04:57:22;384.10;2329.60
55026;DHT22;40925;45.666;18.994;2023-05-20T04:59:48;384.20;2329.60
55026;DHT22;40925;45.666;18.994;2023-05-20T05:02:14;384.00;2329.60
55026;DHT22;40925;45.666;18.994;2023-05-20T05:04:39;384.10;2329.60
55026;DHT22;40925;45.666;18.994;2023-05-20T05:07:05;384.10;2329.60
55026;DHT22;40925;45.666;18.994;2023-05-20T05:09:31;384.20;2329.60
55026;DHT22;40925;45.666;18.994;2023-05-20T05:11:57;384.20;2329.60
55026;DHT22;40925;45.666;18.994;2023-05-20T05:14:22;384.50;2329.60
55026;DHT22;40925;45.666;18.994;2023-05-20T05:16:48;384.60;2329.60
55026;DHT22;40925;45.666;18.994;2023-05-20T05:19:14;384.70;2329.60
55026;DHT22;40925;45.666;18.994;2023-05-20T05:21:40;384.80;2329.60
55026;DHT22;40925;45.666;18.994;2023-05-20T05:24:06;409.60;2355.20
55026;DHT22;40925;45.666;18.994;2023-05-20T05:26:32;409.70;2355.20
55026;DHT22;40925;45.666;18.994;2023-05-20T05:28:58;409.90;2355.20
55026;DHT22;40925;45.666;18.994;2023-05-20T05:31:24;410.10;2355.20
55026;DHT22;40925;45.666;18.994;2023-05-20T05:38:42;435.30;2355.20
55026;DHT22;40925;45.666;18.994;2023-05-20T05:41:08;435.30;2355.20
55026;DHT22;40925;45.666;18.994;2023-05-20T05:43:34;435.80;2355.20
55026;DHT22;40925;45.666;18.994;2023-05-20T05:46:00;435.60;2355.20
55026;DHT22;40925;45.666;18.994;2023-05-20T05:48:25;435.60;2355.20
55026;DHT22;40925;45.666;18.994;2023-05-20T05:50:52;435.60;2355.20
55026;DHT22;40925;45.666;18.994;2023-05-20T05:53:17;435.70;2355.20
55026;DHT22;40925;45.666;18.994;2023-05-20T05:55:45;435.80;2355.20
55026;DHT22;40925;45.666;18.994;2023-05-20T06:05:30;461.20;2380.80
55026;DHT22;40925;45.666;18.994;2023-05-20T07:01:34;512.70;2380.80
55026;DHT22;40925;45.666;18.994;2023-05-20T07:06:26;512.70;2380.80
55026;DHT22;40925;45.666;18.994;2023-05-20T07:11:18;537.60;2406.40
55026;DHT22;40925;45.666;18.994;2023-05-20T07:23:28;538.20;2406.40
55026;DHT22;40925;45.666;18.994;2023-05-20T07:25:53;538.00;2406.40
55026;DHT22;40925;45.666;18.994;2023-05-20T07:28:20;538.10;2406.40
55026;DHT22;40925;45.666;18.994;2023-05-20T07:30:47;538.00;2406.40
55026;DHT22;40925;45.666;18.994;2023-05-20T07:33:15;538.00;2406.40
55026;DHT22;40925;45.666;18.994;2023-05-20T07:35:42;538.40;2406.40
55026;DHT22;40925;45.666;18.994;2023-05-20T07:38:07;538.50;2406.40
55026;DHT22;40925;45.666;18.994;2023-05-20T07:40:33;563.20;2432.00
55026;DHT22;40925;45.666;18.994;2023-05-20T07:43:01;538.30;2406.40
55026;DHT22;40925;45.666;18.994;2023-05-20T07:45:27;563.50;2432.00
55026;DHT22;40925;45.666;18.994;2023-05-20T07:47:52;563.60;2432.00
55026;DHT22;40925;45.666;18.994;2023-05-20T07:50:18;563.30;2432.00
55026;DHT22;40925;45.666;18.994;2023-05-20T07:52:44;538.40;2406.40
55026;DHT22;40925;45.666;18.994;2023-05-20T07:55:09;563.20;2432.00
55026;DHT22;40925;45.666;18.994;2023-05-20T07:57:35;563.40;2432.00
55026;DHT22;40925;45.666;18.994;2023-05-20T08:02:28;563.90;2432.00
55026;DHT22;40925;45.666;18.994;2023-05-20T08:07:20;588.80;2432.00
55026;DHT22;40925;45.666;18.994;2023-05-20T08:09:45;589.10;2432.00
55026;DHT22;40925;45.666;18.994;2023-05-20T08:12:11;589.00;2432.00
55026;DHT22;40925;45.666;18.994;2023-05-20T08:14:37;588.90;2432.00
55026;DHT22;40925;45.666;18.994;2023-05-20T08:17:02;588.80;2432.00
55026;DHT22;40925;45.666;18.994;2023-05-20T08:19:28;564.10;2432.00
55026;DHT22;40925;45.666;18.994;2023-05-20T08:21:54;588.90;2432.00
55026;DHT22;40925;45.666;18.994;2023-05-20T08:24:19;589.10;2432.00
55026;DHT22;40925;45.666;18.994;2023-05-20T08:26:45;589.30;2432.00
55026;DHT22;40925;45.666;18.994;2023-05-20T08:29:11;589.00;2432.00
55026;DHT22;40925;45.666;18.994;2023-05-20T08:31:37;589.10;2432.00
55026;DHT22;40925;45.666;18.994;2023-05-20T08:36:28;589.60;2432.00
55026;DHT22;40925;45.666;18.994;2023-05-20T08:38:54;589.60;2432.00
55026;DHT22;40925;45.666;18.994;2023-05-20T08:41:20;614.50;2432.00
55026;DHT22;40925;45.666;18.994;2023-05-20T08:43:48;589.60;2432.00
55026;DHT22;40925;45.666;18.994;2023-05-20T08:46:16;589.60;2432.00
55026;DHT22;40925;45.666;18.994;2023-05-20T08:48:43;589.70;2432.00
55026;DHT22;40925;45.666;18.994;2023-05-20T08:53:36;614.60;2432.00
55026;DHT22;40925;45.666;18.994;2023-05-20T09:05:48;615.20;2432.00
55026;DHT22;40925;45.666;18.994;2023-05-20T09:08:14;615.20;2432.00
55026;DHT22;40925;45.666;18.994;2023-05-20T09:10:40;615.30;2432.00
55026;DHT22;40925;45.666;18.994;2023-05-20T09:20:29;640.10;2380.80
55026;DHT22;40925;45.666;18.994;2023-05-20T09:23:05;615.20;2304.00
55026;DHT22;40925;45.666;18.994;2023-05-20T09:25:31;615.10;2406.40
55026;DHT22;40925;45.666;18.994;2023-05-20T09:27:57;640.10;2380.80
55026;DHT22;40925;45.666;18.994;2023-05-20T10:38:24;691.70;1920.00
55026;DHT22;40925;45.666;18.994;2023-05-20T10:40:51;691.50;1868.80
55026;DHT22;40925;45.666;18.994;2023-05-20T10:43:25;692.00;1817.60
55026;DHT22;40925;45.666;18.994;2023-05-20T10:45:55;691.50;1792.00
55026;DHT22;40925;45.666;18.994;2023-05-20T10:48:27;666.20;1817.60
55026;DHT22;40925;45.666;18.994;2023-05-20T10:50:55;665.70;1920.00
55026;DHT22;40925;45.666;18.994;2023-05-20T10:53:22;665.70;1920.00
55026;DHT22;40925;45.666;18.994;2023-05-20T10:55:50;666.00;1996.80
55026;DHT22;40925;45.666;18.994;2023-05-20T10:58:16;691.20;1920.00
55026;DHT22;40925;45.666;18.994;2023-05-20T11:00:43;691.20;1945.60
55026;DHT22;40925;45.666;18.994;2023-05-20T11:03:10;666.10;1945.60
55026;DHT22;40925;45.666;18.994;2023-05-20T11:05:38;691.50;1971.20
55026;DHT22;40925;45.666;18.994;2023-05-20T11:08:06;691.50;1894.40
55026;DHT22;40925;45.666;18.994;2023-05-20T11:10:33;692.00;1868.80
55026;DHT22;40925;45.666;18.994;2023-05-20T11:13:00;717.00;1766.40
55026;DHT22;40925;45.666;18.994;2023-05-20T11:15:26;716.80;1792.00
55026;DHT22;40925;45.666;18.994;2023-05-20T11:18:02;692.10;1792.00
55026;DHT22;40925;45.666;18.994;2023-05-20T11:20:29;691.70;1766.40
55026;DHT22;40925;45.666;18.994;2023-05-20T11:22:55;691.60;1766.40
55026;DHT22;40925;45.666;18.994;2023-05-20T11:25:22;716.80;1843.20
55026;DHT22;40925;45.666;18.994;2023-05-20T11:27:49;717.40;1766.40
55026;DHT22;40925;45.666;18.994;2023-05-20T11:30:16;716.80;1792.00
55026;DHT22;40925;45.666;18.994;2023-05-20T11:33:03;691.60;1740.80
55026;DHT22;40925;45.666;18.994;2023-05-20T11:35:32;691.50;1689.60
55026;DHT22;40925;45.666;18.994;2023-05-20T11:38:06;691.60;1843.20
55026;DHT22;40925;45.666;18.994;2023-05-20T11:40:34;692.00;1740.80
55026;DHT22;40925;45.666;18.994;2023-05-20T11:43:03;691.80;1715.20
55026;DHT22;40925;45.666;18.994;2023-05-20T11:45:59;691.60;1740.80
55026;DHT22;40925;45.666;18.994;2023-05-20T11:48:25;691.70;1715.20
55026;DHT22;40925;45.666;18.994;2023-05-20T11:50:53;692.00;1715.20
55026;DHT22;40925;45.666;18.994;2023-05-20T11:53:21;691.70;1792.00
55026;DHT22;40925;45.666;18.994;2023-05-20T11:55:53;692.10;1740.80
55026;DHT22;40925;45.666;18.994;2023-05-20T11:58:20;716.90;1792.00
55026;DHT22;40925;45.666;18.994;2023-05-20T12:00:46;692.10;1689.60
55026;DHT22;40925;45.666;18.994;2023-05-20T12:03:12;692.00;1766.40
55026;DHT22;40925;45.666;18.994;2023-05-20T12:05:38;692.10;1715.20
55026;DHT22;40925;45.666;18.994;2023-05-20T12:08:05;691.40;1740.80
55026;DHT22;40925;45.666;18.994;2023-05-20T12:12:57;691.80;1689.60
55026;DHT22;40925;45.666;18.994;2023-05-20T12:15:23;691.60;1689.60
55026;DHT22;40925;45.666;18.994;2023-05-20T12:17:52;691.60;1689.60
55026;DHT22;40925;45.666;18.994;2023-05-20T12:20:23;692.00;1715.20
55026;DHT22;40925;45.666;18.994;2023-05-20T12:22:49;692.00;1664.00
55026;DHT22;40925;45.666;18.994;2023-05-20T12:25:17;691.60;1612.80
55026;DHT22;40925;45.666;18.994;2023-05-20T12:27:44;691.20;1740.80
55026;DHT22;40925;45.666;18.994;2023-05-20T12:30:16;691.60;1689.60
55026;DHT22;40925;45.666;18.994;2023-05-20T12:32:42;692.00;1689.60
55026;DHT22;40925;45.666;18.994;2023-05-20T12:35:09;717.00;1715.20
55026;DHT22;40925;45.666;18.994;2023-05-20T12:37:36;717.00;1715.20
55026;DHT22;40925;45.666;18.994;2023-05-20T12:40:03;717.20;1638.40
55026;DHT22;40925;45.666;18.994;2023-05-20T12:54:54;717.10;1510.40
55026;DHT22;40925;45.666;18.994;2023-05-20T12:57:22;716.90;1561.60
55026;DHT22;40925;45.666;18.994;2023-05-20T12:59:48;717.00;1561.60
55026;DHT22;40925;45.666;18.994;2023-05-20T13:02:14;717.00;1536.00
55026;DHT22;40925;45.666;18.994;2023-05-20T13:04:40;717.30;1484.80
55026;DHT22;40925;45.666;18.994;2023-05-20T13:07:05;717.50;1459.20
55026;DHT22;40925;45.666;18.994;2023-05-20T13:09:31;717.40;1382.40
55026;DHT22;40925;45.666;18.994;2023-05-20T13:11:59;717.50;1433.60
55026;DHT22;40925;45.666;18.994;2023-05-20T13:14:25;717.10;1459.20
55026;DHT22;40925;45.666;18.994;2023-05-20T13:16:51;717.20;1459.20
55026;DHT22;40925;45.666;18.994;2023-05-20T13:19:21;717.60;1484.80
55026;DHT22;40925;45.666;18.994;2023-05-20T13:21:48;742.40;1561.60
55026;DHT22;40925;45.666;18.994;2023-05-20T13:24:14;717.40;1382.40
55026;DHT22;40925;45.666;18.994;2023-05-20T13:26:40;692.00;1408.00
55026;DHT22;40925;45.666;18.994;2023-05-20T13:29:06;717.00;1510.40
55026;DHT22;40925;45.666;18.994;2023-05-20T13:31:32;742.40;1510.40
55026;DHT22;40925;45.666;18.994;2023-05-20T13:33:58;742.70;1459.20
55026;DHT22;40925;45.666;18.994;2023-05-20T13:36:25;717.60;1408.00
55026;DHT22;40925;45.666;18.994;2023-05-20T13:38:51;717.50;1408.00
55026;DHT22;40925;45.666;18.994;2023-05-20T13:41:17;717.00;1433.60
55026;DHT22;40925;45.666;18.994;2023-05-20T13:43:42;717.10;1433.60
55026;DHT22;40925;45.666;18.994;2023-05-20T13:46:08;717.00;1510.40
55026;DHT22;40925;45.666;18.994;2023-05-20T13:48:34;717.40;1510.40
55026;DHT22;40925;45.666;18.994;2023-05-20T13:50:59;717.10;1459.20
55026;DHT22;40925;45.666;18.994;2023-05-20T13:53:27;717.40;1433.60
55026;DHT22;40925;45.666;18.994;2023-05-20T13:55:52;717.40;1433.60
55026;DHT22;40925;45.666;18.994;2023-05-20T13:58:18;742.50;1356.80
55026;DHT22;40925;45.666;18.994;2023-05-20T14:00:44;742.50;1382.40
55026;DHT22;40925;45.666;18.994;2023-05-20T14:03:10;742.40;1433.60
55026;DHT22;40925;45.666;18.994;2023-05-20T14:05:36;742.50;1459.20
55026;DHT22;40925;45.666;18.994;2023-05-20T14:08:02;742.50;1408.00
55026;DHT22;40925;45.666;18.994;2023-05-20T14:10:28;742.50;1433.60
55026;DHT22;40925;45.666;18.994;2023-05-20T14:12:55;742.40;1433.60
55026;DHT22;40925;45.666;18.994;2023-05-20T14:15:21;717.70;1382.40
55026;DHT22;40925;45.666;18.994;2023-05-20T14:17:47;717.70;1433.60
55026;DHT22;40925;45.666;18.994;2023-05-20T14:20:13;742.70;1484.80
55026;DHT22;40925;45.666;18.994;2023-05-20T14:22:38;742.90;1382.40
55026;DHT22;40925;45.666;18.994;2023-05-20T14:25:05;742.70;1408.00
55026;DHT22;40925;45.666;18.994;2023-05-20T14:27:30;717.70;1382.40
55026;DHT22;40925;45.666;18.994;2023-05-20T14:29:56;717.40;1433.60
55026;DHT22;40925;45.666;18.994;2023-05-20T14:32:22;717.60;1408.00
55026;DHT22;40925;45.666;18.994;2023-05-20T14:34:47;717.50;1459.20
55026;DHT22;40925;45.666;18.994;2023-05-20T14:37:13;717.40;1433.60
55026;DHT22;40925;45.666;18.994;2023-05-20T14:39:40;717.50;1433.60
55026;DHT22;40925;45.666;18.994;2023-05-20T14:42:06;717.70;1408.00
55026;DHT22;40925;45.666;18.994;2023-05-20T14:44:32;717.30;1408.00
55026;DHT22;40925;45.666;18.994;2023-05-20T14:46:58;717.40;1459.20
55026;DHT22;40925;45.666;18.994;2023-05-20T14:49:23;717.30;1484.80
55026;DHT22;40925;45.666;18.994;2023-05-20T14:51:49;717.50;1484.80
55026;DHT22;40925;45.666;18.994;2023-05-20T14:54:15;717.40;1408.00
55026;DHT22;40925;45.666;18.994;2023-05-20T14:56:43;717.20;1484.80
55026;DHT22;40925;45.666;18.994;2023-05-20T14:59:09;717.00;1484.80
55026;DHT22;40925;45.666;18.994;2023-05-20T15:01:35;717.40;1433.60
55026;DHT22;40925;45.666;18.994;2023-05-20T15:04:02;717.40;1433.60
55026;DHT22;40925;45.666;18.994;2023-05-20T15:06:28;717.40;1484.80
55026;DHT22;40925;45.666;18.994;2023-05-20T15:08:55;716.90;1484.80
55026;DHT22;40925;45.666;18.994;2023-05-20T15:11:21;716.80;1484.80
55026;DHT22;40925;45.666;18.994;2023-05-20T15:13:47;717.00;1433.60
55026;DHT22;40925;45.666;18.994;2023-05-20T15:16:12;717.30;1433.60
55026;DHT22;40925;45.666;18.994;2023-05-20T15:18:38;717.30;1433.60
55026;DHT22;40925;45.666;18.994;2023-05-20T15:21:04;717.00;1433.60
55026;DHT22;40925;45.666;18.994;2023-05-20T15:23:30;692.00;1484.80
55026;DHT22;40925;45.666;18.994;2023-05-20T15:25:56;692.10;1612.80
55026;DHT22;40925;45.666;18.994;2023-05-20T15:28:24;717.00;1536.00
55026;DHT22;40925;45.666;18.994;2023-05-20T15:30:53;692.00;1484.80
55026;DHT22;40925;45.666;18.994;2023-05-20T15:33:20;691.90;1510.40
55026;DHT22;40925;45.666;18.994;2023-05-20T15:35:46;692.00;1459.20
55026;DHT22;40925;45.666;18.994;2023-05-20T15:38:12;691.90;1459.20
55026;DHT22;40925;45.666;18.994;2023-05-20T15:40:38;691.80;1459.20
55026;DHT22;40925;45.666;18.994;2023-05-20T15:43:04;691.90;1459.20
55026;DHT22;40925;45.666;18.994;2023-05-20T15:45:31;692.10;1433.60
55026;DHT22;40925;45.666;18.994;2023-05-20T15:47:56;716.80;1459.20
55026;DHT22;40925;45.666;18.994;2023-05-20T15:50:22;717.10;1459.20
55026;DHT22;40925;45.666;18.994;2023-05-20T15:52:50;717.30;1459.20
55026;DHT22;40925;45.666;18.994;2023-05-20T15:55:17;717.40;1433.60
55026;DHT22;40925;45.666;18.994;2023-05-20T15:57:42;717.40;1433.60
55026;DHT22;40925;45.666;18.994;2023-05-20T16:00:09;717.20;1433.60
55026;DHT22;40925;45.666;18.994;2023-05-20T16:02:38;717.20;1408.00
55026;DHT22;40925;45.666;18.994;2023-05-20T16:05:05;717.00;1408.00
55026;DHT22;40925;45.666;18.994;2023-05-20T16:07:31;716.90;1459.20
55026;DHT22;40925;45.666;18.994;2023-05-20T16:09:56;717.00;1433.60
55026;DHT22;40925;45.666;18.994;2023-05-20T16:12:23;717.00;1459.20
55026;DHT22;40925;45.666;18.994;2023-05-20T16:14:48;717.00;1433.60
55026;DHT22;40925;45.666;18.994;2023-05-20T16:17:14;717.10;1459.20
55026;DHT22;40925;45.666;18.994;2023-05-20T16:19:46;717.10;1459.20
55026;DHT22;40925;45.666;18.994;2023-05-20T16:22:12;717.10;1484.80
55026;DHT22;40925;45.666;18.994;2023-05-20T16:24:38;717.00;1484.80
55026;DHT22;40925;45.666;18.994;2023-05-20T16:27:04;716.80;1510.40
55026;DHT22;40925;45.666;18.994;2023-05-20T16:29:30;692.10;1510.40
55026;DHT22;40925;45.666;18.994;2023-05-20T16:31:56;692.10;1536.00
55026;DHT22;40925;45.666;18.994;2023-05-20T16:34:22;692.00;1536.00
55026;DHT22;40925;45.666;18.994;2023-05-20T16:36:47;691.90;1561.60
55026;DHT22;40925;45.666;18.994;2023-05-20T16:39:14;691.60;1561.60
55026;DHT22;40925;45.666;18.994;2023-05-20T16:41:40;691.60;1587.20
55026;DHT22;40925;45.666;18.994;2023-05-20T16:44:06;691.70;1587.20
55026;DHT22;40925;45.666;18.994;2023-05-20T16:46:32;691.50;1612.80
55026;DHT22;40925;45.666;18.994;2023-05-20T16:48:57;691.50;1638.40
55026;DHT22;40925;45.666;18.994;2023-05-20T16:53:50;691.60;1638.40
55026;DHT22;40925;45.666;18.994;2023-05-20T16:58:42;691.40;1638.40
55026;DHT22;40925;45.666;18.994;2023-05-20T17:01:08;691.20;1664.00
55026;DHT22;40925;45.666;18.994;2023-05-20T17:03:34;666.50;1664.00
55026;DHT22;40925;45.666;18.994;2023-05-20T17:06:00;666.50;1664.00
55026;DHT22;40925;45.666;18.994;2023-05-20T17:08:27;666.50;1664.00
55026;DHT22;40925;45.666;18.994;2023-05-20T17:10:52;666.40;1664.00
55026;DHT22;40925;45.666;18.994;2023-05-20T17:18:10;588.80;2073.60
55026;DHT22;40925;45.666;18.994;2023-05-20T17:20:36;563.90;2201.60
55026;DHT22;40925;45.666;18.994;2023-05-20T17:23:02;563.40;2432.00
55026;DHT22;40925;45.666;18.994;2023-05-20T17:25:27;538.20;2406.40
55026;DHT22;40925;45.666;18.994;2023-05-20T19:03:07;487.20;2380.80
55026;DHT22;40925;45.666;18.994;2023-05-20T19:12:52;486.60;2380.80
55026;DHT22;40925;45.666;18.994;2023-05-20T19:15:18;486.40;2380.80
55026;DHT22;40925;45.666;18.994;2023-05-20T19:22:44;486.60;2380.80
55026;DHT22;40925;45.666;18.994;2023-05-20T19:25:10;486.40;2380.80
55026;DHT22;40925;45.666;18.994;2023-05-20T19:27:35;486.40;2380.80
55026;DHT22;40925;45.666;18.994;2023-05-20T19:30:01;486.50;2380.80
55026;DHT22;40925;45.666;18.994;2023-05-20T19:32:27;486.40;2380.80
55026;DHT22;40925;45.666;18.994;2023-05-20T19:34:53;486.50;2380.80
55026;DHT22;40925;45.666;18.994;2023-05-20T19:37:19;486.70;2380.80
55026;DHT22;40925;45.666;18.994;2023-05-20T19:39:44;486.90;2380.80
55026;DHT22;40925;45.666;18.994;2023-05-20T19:42:10;486.60;2380.80
55026;DHT22;40925;45.666;18.994;2023-05-20T19:44:36;486.60;2380.80
55026;DHT22;40925;45.666;18.994;2023-05-20T19:47:02;486.60;2380.80
55026;DHT22;40925;45.666;18.994;2023-05-20T19:49:29;486.60;2380.80
55026;DHT22;40925;45.666;18.994;2023-05-20T19:51:57;486.50;2380.80
55026;DHT22;40925;45.666;18.994;2023-05-20T19:54:23;486.50;2380.80
55026;DHT22;40925;45.666;18.994;2023-05-20T19:56:48;486.60;2380.80
55026;DHT22;40925;45.666;18.994;2023-05-20T19:59:14;486.60;2380.80
55026;DHT22;40925;45.666;18.994;2023-05-20T20:01:40;486.60;2380.80
55026;DHT22;40925;45.666;18.994;2023-05-20T20:04:06;486.70;2380.80
55026;DHT22;40925;45.666;18.994;2023-05-20T20:06:31;487.00;2380.80
55026;DHT22;40925;45.666;18.994;2023-05-20T20:08:57;486.90;2380.80
55026;DHT22;40925;45.666;18.994;2023-05-20T20:11:23;486.70;2380.80
55026;DHT22;40925;45.666;18.994;2023-05-20T20:13:48;486.60;2380.80
55026;DHT22;40925;45.666;18.994;2023-05-20T20:16:14;486.60;2380.80
55026;DHT22;40925;45.666;18.994;2023-05-20T20:18:41;486.50;2380.80
55026;DHT22;40925;45.666;18.994;2023-05-20T20:21:07;461.60;2380.80
55026;DHT22;40925;45.666;18.994;2023-05-20T20:23:35;461.70;2380.80
55026;DHT22;40925;45.666;18.994;2023-05-20T20:26:04;461.60;2380.80
55026;DHT22;40925;45.666;18.994;2023-05-20T20:28:30;461.60;2380.80
55026;DHT22;40925;45.666;18.994;2023-05-20T20:30:55;461.60;2380.80
55026;DHT22;40925;45.666;18.994;2023-05-20T20:33:21;461.60;2380.80
55026;DHT22;40925;45.666;18.994;2023-05-20T20:35:47;461.60;2380.80
55026;DHT22;40925;45.666;18.994;2023-05-20T20:38:13;461.60;2380.80
55026;DHT22;40925;45.666;18.994;2023-05-20T20:40:39;461.60;2380.80
55026;DHT22;40925;45.666;18.994;2023-05-20T20:43:10;461.60;2380.80
55026;DHT22;40925;45.666;18.994;2023-05-20T20:45:45;461.60;2380.80
55026;DHT22;40925;45.666;18.994;2023-05-20T20:48:14;461.60;2380.80
55026;DHT22;40925;45.666;18.994;2023-05-20T20:50:46;461.50;2380.80
55026;DHT22;40925;45.666;18.994;2023-05-20T20:53:13;461.70;2380.80
55026;DHT22;40925;45.666;18.994;2023-05-20T20:55:40;461.60;2380.80
55026;DHT22;40925;45.666;18.994;2023-05-20T21:27:38;486.40;2380.80
55026;DHT22;40925;45.666;18.994;2023-05-20T21:30:10;461.60;2380.80
55026;DHT22;40925;45.666;18.994;2023-05-20T21:32:36;461.40;2380.80
55026;DHT22;40925;45.666;18.994;2023-05-20T21:35:02;461.40;2380.80
55026;DHT22;40925;45.666;18.994;2023-05-20T21:37:28;461.40;2380.80
55026;DHT22;40925;45.666;18.994;2023-05-20T21:39:54;461.40;2380.80
55026;DHT22;40925;45.666;18.994;2023-05-20T21:42:20;461.50;2380.80
55026;DHT22;40925;45.666;18.994;2023-05-20T21:44:45;461.40;2380.80
55026;DHT22;40925;45.666;18.994;2023-05-20T21:54:29;461.10;2380.80
55026;DHT22;40925;45.666;18.994;2023-05-20T21:56:55;461.10;2124.80
55026;DHT22;40925;45.666;18.994;2023-05-20T21:59:21;460.90;2380.80
55026;DHT22;40925;45.666;18.994;2023-05-20T22:37:27;436.10;2355.20
55026;DHT22;40925;45.666;18.994;2023-05-20T22:39:55;435.80;2355.20
55026;DHT22;40925;45.666;18.994;2023-05-20T22:42:21;435.70;2355.20
55026;DHT22;40925;45.666;18.994;2023-05-20T22:44:47;435.70;2355.20
55026;DHT22;40925;45.666;18.994;2023-05-20T22:47:13;435.70;2355.20
55026;DHT22;40925;45.666;18.994;2023-05-20T22:49:38;435.50;2355.20
55026;DHT22;40925;45.666;18.994;2023-05-20T22:52:05;435.50;2355.20
55026;DHT22;40925;45.666;18.994;2023-05-20T22:54:32;435.30;2355.20
55026;DHT22;40925;45.666;18.994;2023-05-20T22:56:58;435.30;2355.20
55026;DHT22;40925;45.666;18.994;2023-05-20T22:59:25;435.20;2355.20
55026;DHT22;40925;45.666;18.994;2023-05-20T23:01:51;435.20;2355.20
55026;DHT22;40925;45.666;18.994;2023-05-20T23:04:17;410.50;2355.20
55026;DHT22;40925;45.666;18.994;2023-05-20T23:06:43;435.20;2355.20
55026;DHT22;40925;45.666;18.994;2023-05-20T23:09:10;435.20;2355.20
55026;DHT22;40925;45.666;18.994;2023-05-20T23:11:37;435.20;2355.20
55026;DHT22;40925;45.666;18.994;2023-05-20T23:14:02;435.20;2124.80
55026;DHT22;40925;45.666;18.994;2023-05-20T23:29:02;435.30;2355.20
55026;DHT22;40925;45.666;18.994;2023-05-20T23:38:50;410.50;2355.20
55026;DHT22;40925;45.666;18.994;2023-05-20T23:41:17;410.40;2355.20
55026;DHT22;40925;45.666;18.994;2023-05-20T23:43:42;410.20;2355.20
